sensor_id;sensor_type;location;lat;lon;timestamp;pressure;altitude;pressure_sealevel;temperature;humidity
22104;BME280;11218;48.886;9.426;2023-04-01T00:00:00;96640.66;;;9.51;77.74
22104;BME280;11218;48.886;9.426;2023-04-01T00:02:29;96641.47;;;9.47;77.89
22104;BME280;11218;48.886;9.426;2023-04-01T00:04:57;96640.41;;;9.48;78.00
22104;BME280;11218;48.886;9.426;2023-04-01T00:07:25;96643.91;;;9.48;77.98
22104;BME280;11218;48.886;9.426;2023-04-01T00:09:56;96633.19;;;9.43;78.50
22104;BME280;11218;48.886;9.426;2023-04-01T00:12:24;96639.63;;;9.42;78.11
22104;BME280;11218;48.886;9.426;2023-04-01T00:14:52;96630.75;;;9.47;78.08
22104;BME280;11218;48.886;9.426;2023-04-01T00:17:20;96639.06;;;9.45;78.53
22104;BME280;11218;48.886;9.426;2023-04-01T00:19:49;96636.91;;;9.47;78.52
22104;BME280;11218;48.886;9.426;2023-04-01T00:22:17;96635.88;;;9.43;78.64
22104;BME280;11218;48.886;9.426;2023-04-01T00:24:45;96636.38;;;9.45;78.51
22104;BME280;11218;48.886;9.426;2023-04-01T00:27:13;96645.00;;;9.42;78.97
22104;BME280;11218;48.886;9.426;2023-04-01T00:29:42;96633.47;;;9.37;79.74
22104;BME280;11218;48.886;9.426;2023-04-01T00:32:11;96640.72;;;9.36;79.56
22104;BME280;11218;48.886;9.426;2023-04-01T00:34:39;96646.38;;;9.35;79.71
22104;BME280;11218;48.886;9.426;2023-04-01T00:37:09;96645.56;;;9.34;80.16
22104;BME280;11218;48.886;9.426;2023-04-01T00:39:37;96639.69;;;9.32;79.94
22104;BME280;11218;48.886;9.426;2023-04-01T00:42:06;96643.16;;;9.38;80.24
22104;BME280;11218;48.886;9.426;2023-04-01T00:44:34;96646.13;;;9.31;80.44
22104;BME280;11218;48.886;9.426;2023-04-01T00:47:03;96636.97;;;9.37;80.45
22104;BME280;11218;48.886;9.426;2023-04-01T00:49:33;96636.72;;;9.34;80.67
22104;BME280;11218;48.886;9.426;2023-04-01T00:52:04;96644.50;;;9.35;80.15
22104;BME280;11218;48.886;9.426;2023-04-01T00:54:35;96648.25;;;9.34;80.24
22104;BME280;11218;48.886;9.426;2023-04-01T00:57:05;96641.28;;;9.33;80.70
22104;BME280;11218;48.886;9.426;2023-04-01T00:59:39;96646.13;;;9.31;80.66
22104;BME280;11218;48.886;9.426;2023-04-01T01:02:12;96643.94;;;9.38;80.15
22104;BME280;11218;48.886;9.426;2023-04-01T01:04:40;96643.94;;;9.38;80.49
22104;BME280;11218;48.886;9.426;2023-04-01T01:07:19;96652.56;;;9.30;80.94
22104;BME280;11218;48.886;9.426;2023-04-01T01:09:56;96638.34;;;9.30;81.13
22104;BME280;11218;48.886;9.426;2023-04-01T01:12:32;96646.69;;;9.28;81.20
22104;BME280;11218;48.886;9.426;2023-04-01T01:15:09;96645.31;;;9.31;81.11
22104;BME280;11218;48.886;9.426;2023-04-01T01:17:46;96645.56;;;9.39;80.72
22104;BME280;11218;48.886;9.426;2023-04-01T01:20:50;96646.66;;;9.33;80.54
22104;BME280;11218;48.886;9.426;2023-04-01T01:23:43;96637.25;;;9.36;80.86
22104;BME280;11218;48.886;9.426;2023-04-01T01:26:42;96642.63;;;9.36;81.13
22104;BME280;11218;48.886;9.426;2023-04-01T01:29:41;96643.94;;;9.38;80.82
22104;BME280;11218;48.886;9.426;2023-04-01T01:32:17;96645.56;;;9.34;81.02
22104;BME280;11218;48.886;9.426;2023-04-01T01:34:50;96641.84;;;9.30;81.47
22104;BME280;11218;48.886;9.426;2023-04-01T01:37:26;96646.16;;;9.26;81.81
22104;BME280;11218;48.886;9.426;2023-04-01T01:39:59;96648.31;;;9.24;81.90
22104;BME280;11218;48.886;9.426;2023-04-01T01:42:31;96642.13;;;9.23;81.94
22104;BME280;11218;48.886;9.426;2023-04-01T01:45:02;96648.28;;;9.29;81.59
22104;BME280;11218;48.886;9.426;2023-04-01T01:47:32;96644.28;;;9.27;81.92
22104;BME280;11218;48.886;9.426;2023-04-01T01:50:02;96637.53;;;9.34;81.68
22104;BME280;11218;48.886;9.426;2023-04-01T01:52:33;96644.00;;;9.28;81.85
22104;BME280;11218;48.886;9.426;2023-04-01T01:55:00;96637.03;;;9.27;81.26
22104;BME280;11218;48.886;9.426;2023-04-01T01:57:33;96644.53;;;9.25;81.60
22104;BME280;11218;48.886;9.426;2023-04-01T02:00:06;96639.19;;;9.25;81.43
22104;BME280;11218;48.886;9.426;2023-04-01T02:02:40;96647.22;;;9.30;81.69
22104;BME280;11218;48.886;9.426;2023-04-01T02:05:10;96644.53;;;9.30;82.01
22104;BME280;11218;48.886;9.426;2023-04-01T02:07:44;96637.03;;;9.27;82.26
22104;BME280;11218;48.886;9.426;2023-04-01T02:10:15;96640.50;;;9.28;82.73
22104;BME280;11218;48.886;9.426;2023-04-01T02:12:43;96641.84;;;9.25;83.06
22104;BME280;11218;48.886;9.426;2023-04-01T02:15:15;96638.09;;;9.26;83.41
22104;BME280;11218;48.886;9.426;2023-04-01T02:17:45;96642.97;;;9.19;83.53
22104;BME280;11218;48.886;9.426;2023-04-01T02:20:16;96645.13;;;9.17;83.72
22104;BME280;11218;48.886;9.426;2023-04-01T02:22:49;96648.34;;;9.14;84.12
22104;BME280;11218;48.886;9.426;2023-04-01T02:25:20;96654.22;;;9.21;83.08
22104;BME280;11218;48.886;9.426;2023-04-01T02:27:50;96650.50;;;9.12;83.50
22104;BME280;11218;48.886;9.426;2023-04-01T02:30:19;96646.75;;;9.08;83.71
22104;BME280;11218;48.886;9.426;2023-04-01T02:32:48;96652.41;;;9.06;83.93
22104;BME280;11218;48.886;9.426;2023-04-01T02:35:17;96660.41;;;9.16;83.50
22104;BME280;11218;48.886;9.426;2023-04-01T02:37:49;96651.06;;;9.09;83.69
22104;BME280;11218;48.886;9.426;2023-04-01T02:40:17;96646.19;;;9.16;83.50
22104;BME280;11218;48.886;9.426;2023-04-01T02:42:46;96641.66;;;9.11;83.98
22104;BME280;11218;48.886;9.426;2023-04-01T02:45:14;96634.41;;;9.12;84.05
22104;BME280;11218;48.886;9.426;2023-04-01T02:47:42;96629.03;;;9.12;83.63
22104;BME280;11218;48.886;9.426;2023-04-01T02:50:11;96632.00;;;9.05;84.18
22104;BME280;11218;48.886;9.426;2023-04-01T02:52:39;96647.84;;;9.07;83.61
22104;BME280;11218;48.886;9.426;2023-04-01T02:55:09;96630.41;;;8.99;84.68
22104;BME280;11218;48.886;9.426;2023-04-01T02:57:37;96635.00;;;8.99;84.31
22104;BME280;11218;48.886;9.426;2023-04-01T03:00:07;96643.03;;;8.99;84.14
22104;BME280;11218;48.886;9.426;2023-04-01T03:02:38;96641.69;;;9.01;83.28
22104;BME280;11218;48.886;9.426;2023-04-01T03:05:07;96644.09;;;9.03;83.66
22104;BME280;11218;48.886;9.426;2023-04-01T03:07:35;96645.19;;;8.97;83.47
22104;BME280;11218;48.886;9.426;2023-04-01T03:10:04;96650.81;;;9.05;82.71
22104;BME280;11218;48.886;9.426;2023-04-01T03:12:33;96652.16;;;9.03;82.84
22104;BME280;11218;48.886;9.426;2023-04-01T03:15:02;96649.75;;;8.96;82.54
22104;BME280;11218;48.886;9.426;2023-04-01T03:17:37;96655.91;;;9.02;82.60
22104;BME280;11218;48.886;9.426;2023-04-01T03:20:06;96647.88;;;8.92;83.17
22104;BME280;11218;48.886;9.426;2023-04-01T03:22:35;96660.81;;;8.89;82.71
22104;BME280;11218;48.886;9.426;2023-04-01T03:25:04;96647.63;;;8.93;82.18
22104;BME280;11218;48.886;9.426;2023-04-01T03:27:34;96654.63;;;8.89;82.56
22104;BME280;11218;48.886;9.426;2023-04-01T03:30:03;96659.72;;;8.91;82.15
22104;BME280;11218;48.886;9.426;2023-04-01T03:32:31;96661.56;;;8.95;81.78
22104;BME280;11218;48.886;9.426;2023-04-01T03:34:59;96659.19;;;8.88;82.52
22104;BME280;11218;48.886;9.426;2023-04-01T03:37:27;96661.84;;;8.94;82.39
22104;BME280;11218;48.886;9.426;2023-04-01T03:39:55;96667.78;;;8.91;82.59
22104;BME280;11218;48.886;9.426;2023-04-01T03:42:23;96660.22;;;8.93;81.72
22104;BME280;11218;48.886;9.426;2023-04-01T03:44:53;96657.06;;;8.85;82.33
22104;BME280;11218;48.886;9.426;2023-04-01T03:47:21;96662.44;;;8.85;82.20
22104;BME280;11218;48.886;9.426;2023-04-01T03:49:49;96669.41;;;8.81;82.01
22104;BME280;11218;48.886;9.426;2023-04-01T03:52:18;96661.09;;;8.83;82.05
22104;BME280;11218;48.886;9.426;2023-04-01T03:54:47;96659.22;;;8.83;81.65
22104;BME280;11218;48.886;9.426;2023-04-01T03:57:16;96654.38;;;8.85;81.08
22104;BME280;11218;48.886;9.426;2023-04-01T03:59:45;96660.56;;;8.76;81.13
22104;BME280;11218;48.886;9.426;2023-04-01T04:02:14;96656.28;;;8.80;81.00
22104;BME280;11218;48.886;9.426;2023-04-01T04:04:42;96647.16;;;8.81;80.89
22104;BME280;11218;48.886;9.426;2023-04-01T04:07:10;96645.81;;;8.73;81.37
22104;BME280;11218;48.886;9.426;2023-04-01T04:09:38;96645.03;;;8.68;81.11
22104;BME280;11218;48.886;9.426;2023-04-01T04:12:06;96642.59;;;8.71;80.21
22104;BME280;11218;48.886;9.426;2023-04-01T04:14:34;96635.38;;;8.72;80.48
22104;BME280;11218;48.886;9.426;2023-04-01T04:17:03;96639.41;;;8.64;80.85
22104;BME280;11218;48.886;9.426;2023-04-01T04:19:33;96641.56;;;8.67;80.56
22104;BME280;11218;48.886;9.426;2023-04-01T04:22:01;96638.59;;;8.64;79.87
22104;BME280;11218;48.886;9.426;2023-04-01T04:24:29;96642.09;;;8.64;79.71
22104;BME280;11218;48.886;9.426;2023-04-01T04:26:57;96632.16;;;8.65;80.01
22104;BME280;11218;48.886;9.426;2023-04-01T04:29:25;96632.97;;;8.65;79.51
22104;BME280;11218;48.886;9.426;2023-04-01T04:31:53;96637.00;;;8.68;79.25
22104;BME280;11218;48.886;9.426;2023-04-01T04:34:22;96627.88;;;8.64;80.14
22104;BME280;11218;48.886;9.426;2023-04-01T04:36:51;96629.47;;;8.75;79.01
22104;BME280;11218;48.886;9.426;2023-04-01T04:39:20;96644.50;;;8.71;79.71
22104;BME280;11218;48.886;9.426;2023-04-01T04:41:48;96646.38;;;8.65;79.71
22104;BME280;11218;48.886;9.426;2023-04-01T04:44:16;96648.25;;;8.65;79.21
22104;BME280;11218;48.886;9.426;2023-04-01T04:46:44;96648.53;;;8.63;79.83
22104;BME280;11218;48.886;9.426;2023-04-01T04:49:12;96646.63;;;8.69;79.38
22104;BME280;11218;48.886;9.426;2023-04-01T04:51:41;96648.81;;;8.62;78.90
22104;BME280;11218;48.886;9.426;2023-04-01T04:54:10;96640.75;;;8.62;79.78
22104;BME280;11218;48.886;9.426;2023-04-01T04:56:38;96630.81;;;8.62;78.86
22104;BME280;11218;48.886;9.426;2023-04-01T04:59:06;96645.03;;;8.68;78.92
22104;BME280;11218;48.886;9.426;2023-04-01T05:01:34;96620.66;;;8.59;79.05
22104;BME280;11218;48.886;9.426;2023-04-01T05:04:03;96634.03;;;8.64;79.20
22104;BME280;11218;48.886;9.426;2023-04-01T05:06:31;96632.47;;;8.53;79.35
22104;BME280;11218;48.886;9.426;2023-04-01T05:08:59;96644.53;;;8.50;80.31
22104;BME280;11218;48.886;9.426;2023-04-01T05:11:29;96646.66;;;8.53;79.95
22104;BME280;11218;48.886;9.426;2023-04-01T05:13:57;96638.09;;;8.56;79.69
22104;BME280;11218;48.886;9.426;2023-04-01T05:16:25;96636.75;;;8.49;79.92
22104;BME280;11218;48.886;9.426;2023-04-01T05:18:53;96649.34;;;8.48;80.63
22104;BME280;11218;48.886;9.426;2023-04-01T05:21:22;96637.56;;;8.49;80.64
22104;BME280;11218;48.886;9.426;2023-04-01T05:23:50;96648.00;;;8.51;81.19
22104;BME280;11218;48.886;9.426;2023-04-01T05:26:18;96636.75;;;8.54;80.79
22104;BME280;11218;48.886;9.426;2023-04-01T05:28:47;96641.03;;;8.55;80.97
22104;BME280;11218;48.886;9.426;2023-04-01T05:31:15;96628.97;;;8.57;80.65
22104;BME280;11218;48.886;9.426;2023-04-01T05:33:44;96637.53;;;8.60;81.23
22104;BME280;11218;48.886;9.426;2023-04-01T05:36:13;96633.50;;;8.67;80.35
22104;BME280;11218;48.886;9.426;2023-04-01T05:38:42;96624.63;;;8.72;79.94
22104;BME280;11218;48.886;9.426;2023-04-01T05:41:12;96639.69;;;8.63;80.85
22104;BME280;11218;48.886;9.426;2023-04-01T05:43:41;96633.75;;;8.71;80.76
22104;BME280;11218;48.886;9.426;2023-04-01T05:46:11;96636.97;;;8.73;80.80
22104;BME280;11218;48.886;9.426;2023-04-01T05:48:39;96634.00;;;8.79;80.67
22104;BME280;11218;48.886;9.426;2023-04-01T05:51:12;96635.63;;;8.80;79.97
22104;BME280;11218;48.886;9.426;2023-04-01T05:53:41;96639.66;;;8.78;80.35
22104;BME280;11218;48.886;9.426;2023-04-01T05:56:09;96623.53;;;8.83;79.74
22104;BME280;11218;48.886;9.426;2023-04-01T05:58:38;96619.22;;;8.87;79.98
22104;BME280;11218;48.886;9.426;2023-04-01T06:01:07;96618.38;;;8.92;79.98
22104;BME280;11218;48.886;9.426;2023-04-01T06:03:43;96624.81;;;8.96;79.40
22104;BME280;11218;48.886;9.426;2023-04-01T06:06:13;96616.75;;;8.96;80.13
22104;BME280;11218;48.886;9.426;2023-04-01T06:08:43;96632.03;;;8.95;79.76
22104;BME280;11218;48.886;9.426;2023-04-01T06:11:22;96619.97;;;8.98;79.40
22104;BME280;11218;48.886;9.426;2023-04-01T06:14:11;96628.25;;;9.06;78.20
22104;BME280;11218;48.886;9.426;2023-04-01T06:16:58;96618.88;;;9.04;78.38
22104;BME280;11218;48.886;9.426;2023-04-01T06:19:38;96623.66;;;9.12;78.79
22104;BME280;11218;48.886;9.426;2023-04-01T06:28:55;96620.66;;;9.23;78.70
22104;BME280;11218;48.886;9.426;2023-04-01T06:31:49;96608.81;;;9.30;78.17
22104;BME280;11218;48.886;9.426;2023-04-01T06:34:35;96615.50;;;9.37;77.79
22104;BME280;11218;48.886;9.426;2023-04-01T06:37:19;96612.50;;;9.44;76.89
22104;BME280;11218;48.886;9.426;2023-04-01T06:40:12;96621.59;;;9.48;77.00
22104;BME280;11218;48.886;9.426;2023-04-01T06:42:56;96605.16;;;9.60;76.29
22104;BME280;11218;48.886;9.426;2023-04-01T06:45:34;96614.00;;;9.60;75.30
22104;BME280;11218;48.886;9.426;2023-04-01T06:48:25;96609.19;;;9.57;75.70
22104;BME280;11218;48.886;9.426;2023-04-01T06:51:12;96617.81;;;9.54;75.58
22104;BME280;11218;48.886;9.426;2023-04-01T06:54:05;96615.34;;;9.63;74.79
22104;BME280;11218;48.886;9.426;2023-04-01T06:56:48;96612.72;;;9.52;74.99
22104;BME280;11218;48.886;9.426;2023-04-01T06:59:32;96611.31;;;9.60;74.63
22104;BME280;11218;48.886;9.426;2023-04-01T07:02:25;96617.78;;;9.59;74.77
22104;BME280;11218;48.886;9.426;2023-04-01T07:05:08;96616.44;;;9.57;75.66
22104;BME280;11218;48.886;9.426;2023-04-01T07:07:53;96612.13;;;9.61;75.08
22104;BME280;11218;48.886;9.426;2023-04-01T07:10:42;96618.31;;;9.61;75.84
22104;BME280;11218;48.886;9.426;2023-04-01T07:13:14;96608.09;;;9.63;74.98
22104;BME280;11218;48.886;9.426;2023-04-01T07:15:51;96608.81;;;9.69;74.95
22104;BME280;11218;48.886;9.426;2023-04-01T07:18:29;96614.69;;;9.76;74.33
22104;BME280;11218;48.886;9.426;2023-04-01T07:21:04;96615.53;;;9.71;74.86
22104;BME280;11218;48.886;9.426;2023-04-01T07:23:42;96616.03;;;9.73;74.29
22104;BME280;11218;48.886;9.426;2023-04-01T07:26:17;96625.72;;;9.74;74.16
22104;BME280;11218;48.886;9.426;2023-04-01T07:28:48;96618.44;;;9.75;74.44
22104;BME280;11218;48.886;9.426;2023-04-01T07:31:22;96632.38;;;9.82;74.28
22104;BME280;11218;48.886;9.426;2023-04-01T07:34:00;96622.69;;;9.86;74.17
22104;BME280;11218;48.886;9.426;2023-04-01T07:36:36;96632.63;;;9.85;73.87
22104;BME280;11218;48.886;9.426;2023-04-01T07:39:15;96635.56;;;9.89;74.16
22104;BME280;11218;48.886;9.426;2023-04-01T07:41:52;96637.69;;;9.92;73.37
22104;BME280;11218;48.886;9.426;2023-04-01T07:44:28;96634.19;;;9.92;73.46
22104;BME280;11218;48.886;9.426;2023-04-01T07:47:12;96638.81;;;9.86;74.38
22104;BME280;11218;48.886;9.426;2023-04-01T07:49:52;96638.25;;;9.89;73.81
22104;BME280;11218;48.886;9.426;2023-04-01T07:52:31;96636.94;;;9.81;74.40
22104;BME280;11218;48.886;9.426;2023-04-01T07:55:06;96636.66;;;9.83;74.62
22104;BME280;11218;48.886;9.426;2023-04-01T07:57:43;96630.22;;;9.84;75.06
22104;BME280;11218;48.886;9.426;2023-04-01T08:00:19;96630.69;;;9.91;74.39
22104;BME280;11218;48.886;9.426;2023-04-01T08:03:09;96631.78;;;9.90;74.18
22104;BME280;11218;48.886;9.426;2023-04-01T08:05:49;96640.91;;;9.94;74.04
22104;BME280;11218;48.886;9.426;2023-04-01T08:08:31;96641.47;;;9.86;74.58
22104;BME280;11218;48.886;9.426;2023-04-01T08:11:09;96646.53;;;9.93;74.73
22104;BME280;11218;48.886;9.426;2023-04-01T08:13:44;96628.81;;;9.92;74.96
22104;BME280;11218;48.886;9.426;2023-04-01T08:16:20;96629.53;;;10.02;74.34
22104;BME280;11218;48.886;9.426;2023-04-01T08:18:58;96641.66;;;10.00;74.60
22104;BME280;11218;48.886;9.426;2023-04-01T08:21:34;96632.75;;;10.04;74.57
22104;BME280;11218;48.886;9.426;2023-04-01T08:24:18;96643.53;;;9.99;74.37
22104;BME280;11218;48.886;9.426;2023-04-01T08:27:10;96651.00;;;10.07;74.12
22104;BME280;11218;48.886;9.426;2023-04-01T08:29:50;96637.03;;;10.05;74.50
22104;BME280;11218;48.886;9.426;2023-04-01T08:32:32;96649.94;;;10.08;74.66
22104;BME280;11218;48.886;9.426;2023-04-01T08:35:13;96640.22;;;10.12;74.96
22104;BME280;11218;48.886;9.426;2023-04-01T08:37:44;96643.75;;;10.08;75.14
22104;BME280;11218;48.886;9.426;2023-04-01T08:40:32;96638.59;;;10.11;75.29
22104;BME280;11218;48.886;9.426;2023-04-01T08:43:10;96643.19;;;10.11;75.79
22104;BME280;11218;48.886;9.426;2023-04-01T08:46:07;96653.97;;;10.06;76.06
22104;BME280;11218;48.886;9.426;2023-04-01T08:49:02;96649.88;;;10.13;75.81
22104;BME280;11218;48.886;9.426;2023-04-01T08:51:51;96659.03;;;10.12;76.36
22104;BME280;11218;48.886;9.426;2023-04-01T08:54:37;96667.91;;;10.13;76.27
22104;BME280;11218;48.886;9.426;2023-04-01T08:57:12;96659.31;;;10.11;77.02
22104;BME280;11218;48.886;9.426;2023-04-01T08:59:53;96659.06;;;10.07;77.65
22104;BME280;11218;48.886;9.426;2023-04-01T09:05:55;96657.84;;;9.89;80.55
22104;BME280;11218;48.886;9.426;2023-04-01T09:08:39;96657.66;;;9.81;80.73
22104;BME280;11218;48.886;9.426;2023-04-01T09:11:19;96660.09;;;9.77;81.63
22104;BME280;11218;48.886;9.426;2023-04-01T09:14:06;96654.19;;;9.75;81.86
22104;BME280;11218;48.886;9.426;2023-04-01T09:17:06;96660.91;;;9.73;81.71
22104;BME280;11218;48.886;9.426;2023-04-01T09:19:53;96652.06;;;9.72;81.78
22104;BME280;11218;48.886;9.426;2023-04-01T09:22:37;96660.63;;;9.74;82.27
22104;BME280;11218;48.886;9.426;2023-04-01T09:25:30;96653.69;;;9.68;83.10
22104;BME280;11218;48.886;9.426;2023-04-01T09:28:09;96653.69;;;9.68;83.00
22104;BME280;11218;48.886;9.426;2023-04-01T09:31:02;96647.50;;;9.68;83.08
22104;BME280;11218;48.886;9.426;2023-04-01T09:34:14;96657.94;;;9.74;82.89
22104;BME280;11218;48.886;9.426;2023-04-01T09:36:58;96657.94;;;9.74;83.00
22104;BME280;11218;48.886;9.426;2023-04-01T09:39:38;96653.34;;;9.80;83.01
22104;BME280;11218;48.886;9.426;2023-04-01T09:42:25;96660.56;;;9.84;81.54
22104;BME280;11218;48.886;9.426;2023-04-01T09:45:01;96658.94;;;9.88;81.63
22104;BME280;11218;48.886;9.426;2023-04-01T09:47:45;96666.44;;;9.92;81.12
22104;BME280;11218;48.886;9.426;2023-04-01T09:50:34;96664.56;;;9.92;80.83
22104;BME280;11218;48.886;9.426;2023-04-01T09:53:15;96659.16;;;9.97;81.33
22104;BME280;11218;48.886;9.426;2023-04-01T09:59:08;96664.25;;;9.99;80.58
22104;BME280;11218;48.886;9.426;2023-04-01T10:01:56;96660.47;;;10.00;81.13
22104;BME280;11218;48.886;9.426;2023-04-01T10:04:56;96675.28;;;9.97;81.39
22104;BME280;11218;48.886;9.426;2023-04-01T10:08:11;96679.28;;;10.00;81.71
22104;BME280;11218;48.886;9.426;2023-04-01T10:11:02;96677.38;;;10.05;80.80
22104;BME280;11218;48.886;9.426;2023-04-01T10:17:21;96676.00;;;10.08;81.98
22104;BME280;11218;48.886;9.426;2023-04-01T10:20:25;96667.91;;;10.13;80.40
22104;BME280;11218;48.886;9.426;2023-04-01T10:23:17;96675.72;;;10.09;80.92
22104;BME280;11218;48.886;9.426;2023-04-01T10:26:02;96671.72;;;10.07;80.84
22104;BME280;11218;48.886;9.426;2023-04-01T10:29:01;96677.84;;;10.12;80.85
22104;BME280;11218;48.886;9.426;2023-04-01T10:31:47;96675.81;;;9.99;81.47
22104;BME280;11218;48.886;9.426;2023-04-01T10:37:26;96681.63;;;10.11;79.24
22104;BME280;11218;48.886;9.426;2023-04-01T10:40:24;96680.88;;;10.06;80.12
22104;BME280;11218;48.886;9.426;2023-04-01T10:46:44;96685.22;;;9.97;80.42
22104;BME280;11218;48.886;9.426;2023-04-01T10:49:41;96690.31;;;9.98;79.91
22104;BME280;11218;48.886;9.426;2023-04-01T10:52:46;96683.03;;;10.04;78.86
22104;BME280;11218;48.886;9.426;2023-04-01T10:58:57;96680.63;;;10.02;79.61
22104;BME280;11218;48.886;9.426;2023-04-01T11:05:04;96683.91;;;9.94;79.64
22104;BME280;11218;48.886;9.426;2023-04-01T11:08:01;96680.16;;;9.90;80.88
22104;BME280;11218;48.886;9.426;2023-04-01T11:14:12;96676.59;;;10.00;80.21
22104;BME280;11218;48.886;9.426;2023-04-01T11:17:10;96682.25;;;9.98;80.63
22104;BME280;11218;48.886;9.426;2023-04-01T11:23:22;96684.19;;;9.93;81.20
22104;BME280;11218;48.886;9.426;2023-04-01T11:26:08;96692.75;;;9.95;81.48
22104;BME280;11218;48.886;9.426;2023-04-01T11:31:57;96690.31;;;9.98;82.11
22104;BME280;11218;48.886;9.426;2023-04-01T11:34:44;96683.78;;;10.09;82.25
22104;BME280;11218;48.886;9.426;2023-04-01T11:37:26;96687.81;;;10.12;82.04
22104;BME280;11218;48.886;9.426;2023-04-01T11:40:05;96693.72;;;10.14;82.35
22104;BME280;11218;48.886;9.426;2023-04-01T11:42:43;96702.28;;;10.21;81.49
22104;BME280;11218;48.886;9.426;2023-04-01T11:45:21;96690.97;;;10.19;80.78
22104;BME280;11218;48.886;9.426;2023-04-01T11:48:07;96696.63;;;10.23;80.96
22104;BME280;11218;48.886;9.426;2023-04-01T11:50:47;96682.34;;;10.27;80.01
22104;BME280;11218;48.886;9.426;2023-04-01T11:53:24;96695.84;;;10.22;80.37
22104;BME280;11218;48.886;9.426;2023-04-01T11:56:08;96691.19;;;10.33;79.24
22104;BME280;11218;48.886;9.426;2023-04-01T12:01:36;96698.69;;;10.36;78.88
22104;BME280;11218;48.886;9.426;2023-04-01T12:04:39;96701.31;;;10.41;77.80
22104;BME280;11218;48.886;9.426;2023-04-01T12:07:19;96707.28;;;10.38;78.14
22104;BME280;11218;48.886;9.426;2023-04-01T12:09:56;96713.75;;;10.37;78.25
22104;BME280;11218;48.886;9.426;2023-04-01T12:12:35;96715.56;;;10.41;76.60
22104;BME280;11218;48.886;9.426;2023-04-01T12:15:25;96722.78;;;10.46;75.81
22104;BME280;11218;48.886;9.426;2023-04-01T12:18:00;96718.69;;;10.53;74.92
22104;BME280;11218;48.886;9.426;2023-04-01T12:20:43;96717.38;;;10.51;76.43
22104;BME280;11218;48.886;9.426;2023-04-01T12:23:26;96723.56;;;10.51;76.96
22104;BME280;11218;48.886;9.426;2023-04-01T12:26:18;96716.81;;;10.54;77.69
22104;BME280;11218;48.886;9.426;2023-04-01T12:28:59;96724.41;;;10.47;78.23
22104;BME280;11218;48.886;9.426;2023-04-01T12:31:39;96717.22;;;10.37;78.32
22104;BME280;11218;48.886;9.426;2023-04-01T12:34:29;96724.94;;;10.44;78.96
22104;BME280;11218;48.886;9.426;2023-04-01T12:37:08;96717.16;;;10.42;79.79
22104;BME280;11218;48.886;9.426;2023-04-01T12:39:56;96722.25;;;10.44;78.69
22104;BME280;11218;48.886;9.426;2023-04-01T12:42:49;96728.44;;;10.44;78.62
22104;BME280;11218;48.886;9.426;2023-04-01T12:45:28;96720.91;;;10.46;78.37
22104;BME280;11218;48.886;9.426;2023-04-01T12:48:19;96725.19;;;10.47;79.51
22104;BME280;11218;48.886;9.426;2023-04-01T12:51:12;96730.81;;;10.51;79.91
22104;BME280;11218;48.886;9.426;2023-04-01T12:54:17;96717.94;;;10.48;79.65
22104;BME280;11218;48.886;9.426;2023-04-01T12:56:55;96723.31;;;10.48;80.30
22104;BME280;11218;48.886;9.426;2023-04-01T12:59:41;96721.97;;;10.45;80.49
22104;BME280;11218;48.886;9.426;2023-04-01T13:02:13;96724.94;;;10.44;80.20
22104;BME280;11218;48.886;9.426;2023-04-01T13:05:00;96730.06;;;10.45;79.81
22104;BME280;11218;48.886;9.426;2023-04-01T13:07:51;96730.09;;;10.40;80.12
22104;BME280;11218;48.886;9.426;2023-04-01T13:10:41;96730.09;;;10.40;79.08
22104;BME280;11218;48.886;9.426;2023-04-01T13:13:31;96733.03;;;10.44;78.92
22104;BME280;11218;48.886;9.426;2023-04-01T13:16:14;96737.06;;;10.41;79.81
22104;BME280;11218;48.886;9.426;2023-04-01T13:18:57;96730.97;;;10.36;79.82
22104;BME280;11218;48.886;9.426;2023-04-01T13:21:47;96730.91;;;10.41;79.34
22104;BME280;11218;48.886;9.426;2023-04-01T13:24:41;96738.97;;;10.41;78.89
22104;BME280;11218;48.886;9.426;2023-04-01T13:27:26;96742.69;;;10.45;78.69
22104;BME280;11218;48.886;9.426;2023-04-01T13:30:20;96751.06;;;10.43;79.48
22104;BME280;11218;48.886;9.426;2023-04-01T13:33:02;96755.84;;;10.51;78.80
22104;BME280;11218;48.886;9.426;2023-04-01T13:35:50;96757.50;;;10.42;80.29
22104;BME280;11218;48.886;9.426;2023-04-01T13:41:25;96757.78;;;10.41;79.31
22104;BME280;11218;48.886;9.426;2023-04-01T13:44:13;96772.63;;;10.38;79.01
22104;BME280;11218;48.886;9.426;2023-04-01T13:47:24;96762.47;;;10.30;78.61
22104;BME280;11218;48.886;9.426;2023-04-01T13:53:41;96780.00;;;10.17;80.36
22104;BME280;11218;48.886;9.426;2023-04-01T13:57:31;96768.19;;;10.13;79.88
22104;BME280;11218;48.886;9.426;2023-04-01T14:01:13;96778.41;;;10.22;79.07
22104;BME280;11218;48.886;9.426;2023-04-01T14:08:04;96775.19;;;10.19;78.96
22104;BME280;11218;48.886;9.426;2023-04-01T14:10:25;96767.88;;;10.25;78.70
22104;BME280;11218;48.886;9.426;2023-04-01T14:13:07;96779.47;;;10.20;80.29
22104;BME280;11218;48.886;9.426;2023-04-01T14:16:00;96773.53;;;10.18;80.55
22104;BME280;11218;48.886;9.426;2023-04-01T14:18:47;96783.25;;;10.14;81.18
22104;BME280;11218;48.886;9.426;2023-04-01T14:21:29;96782.16;;;10.15;79.52
22104;BME280;11218;48.886;9.426;2023-04-01T14:24:35;96780.84;;;10.13;80.70
22104;BME280;11218;48.886;9.426;2023-04-01T14:27:41;96788.66;;;10.09;81.35
22104;BME280;11218;48.886;9.426;2023-04-01T14:30:35;96786.53;;;10.01;81.28
22104;BME280;11218;48.886;9.426;2023-04-01T14:33:21;96790.31;;;10.00;81.99
22104;BME280;11218;48.886;9.426;2023-04-01T14:36:04;96786.59;;;9.91;83.03
22104;BME280;11218;48.886;9.426;2023-04-01T14:38:46;96788.16;;;10.02;80.07
22104;BME280;11218;48.886;9.426;2023-04-01T14:41:28;96794.63;;;9.96;79.91
22104;BME280;11218;48.886;9.426;2023-04-01T14:44:18;96814.22;;;10.02;79.75
22104;BME280;11218;48.886;9.426;2023-04-01T14:47:11;96807.00;;;9.97;80.52
22104;BME280;11218;48.886;9.426;2023-04-01T14:49:49;96801.09;;;9.90;81.62
22104;BME280;11218;48.886;9.426;2023-04-01T14:52:27;96797.63;;;9.84;82.93
22104;BME280;11218;48.886;9.426;2023-04-01T14:54:57;96797.09;;;9.87;82.78
22104;BME280;11218;48.886;9.426;2023-04-01T14:57:28;96804.91;;;9.84;82.72
22104;BME280;11218;48.886;9.426;2023-04-01T15:00:00;96798.44;;;9.85;82.43